createdAt,value
2023-05-19T00:00:50.970Z,69.74
2023-05-19T00:01:50.103Z,69.63
2023-05-19T00:02:50.162Z,69.37
2023-05-19T00:03:50.130Z,69.89
2023-05-19T00:04:50.142Z,70.22
2023-05-19T00:05:50.172Z,70.33
2023-05-19T00:06:50.210Z,70.17
2023-05-19T00:07:50.252Z,69.95
2023-05-19T00:08:50.267Z,69.90
2023-05-19T00:09:50.327Z,69.64
2023-05-19T00:10:50.287Z,69.36
2023-05-19T00:11:50.305Z,69.86
2023-05-19T00:12:57.968Z,70.21
2023-05-19T00:13:50.326Z,70.40
2023-05-19T00:14:50.314Z,70.27
2023-05-19T00:15:50.345Z,69.95
2023-05-19T00:16:50.314Z,69.71
2023-05-19T00:17:50.343Z,70.27
2023-05-19T00:18:50.318Z,70.30
2023-05-19T00:19:50.262Z,70.09
2023-05-19T00:20:50.311Z,70.04
2023-05-19T00:21:50.313Z,70.01
2023-05-19T00:22:50.274Z,70.36
2023-05-19T00:23:50.282Z,70.58
2023-05-19T00:24:50.267Z,70.46
2023-05-19T00:25:50.279Z,70.49
2023-05-19T00:26:50.275Z,70.30
2023-05-19T00:27:50.254Z,70.32
2023-05-19T00:28:50.293Z,70.39
2023-05-19T00:29:50.225Z,70.24
2023-05-19T00:30:50.288Z,70.28
2023-05-19T00:31:50.284Z,70.04
2023-05-19T00:32:50.219Z,69.93
2023-05-19T00:33:50.174Z,69.72
2023-05-19T00:34:50.173Z,69.96
2023-05-19T00:35:50.184Z,70.05
2023-05-19T00:36:50.183Z,70.22
2023-05-19T00:37:50.159Z,70.29
2023-05-19T00:38:50.155Z,70.17
2023-05-19T00:39:50.196Z,70.02
2023-05-19T00:40:50.224Z,70.05
2023-05-19T00:41:50.303Z,70.08
2023-05-19T00:42:50.298Z,69.89
2023-05-19T00:43:50.293Z,69.74
2023-05-19T00:44:50.383Z,69.62
2023-05-19T00:45:50.348Z,69.59
2023-05-19T00:46:50.473Z,69.91
2023-05-19T00:47:50.449Z,69.93
2023-05-19T00:48:50.445Z,69.72
2023-05-19T00:49:50.510Z,69.78
2023-05-19T00:50:50.480Z,69.61
2023-05-19T00:51:50.548Z,69.44
2023-05-19T00:52:50.556Z,69.55
2023-05-19T00:53:50.558Z,69.71
2023-05-19T00:54:50.577Z,69.84
2023-05-19T00:55:50.597Z,70.00
2023-05-19T00:56:50.610Z,69.91
2023-05-19T00:57:50.702Z,69.93
2023-05-19T00:58:50.715Z,70.18
2023-05-19T00:59:50.738Z,70.24
2023-05-19T01:00:50.818Z,70.66
2023-05-19T01:01:50.774Z,70.97
2023-05-19T01:02:50.845Z,71.02
2023-05-19T01:03:50.862Z,71.04
2023-05-19T01:04:50.837Z,70.77
2023-05-19T01:05:50.893Z,70.87
2023-05-19T01:06:50.918Z,70.77
2023-05-19T01:07:50.935Z,70.78
2023-05-19T01:08:50.953Z,71.00
2023-05-19T01:09:50.955Z,70.94
2023-05-19T01:10:50.983Z,71.01
2023-05-19T01:11:51.074Z,70.86
2023-05-19T01:12:51.058Z,70.73
2023-05-19T01:13:51.115Z,70.69
2023-05-19T01:14:51.117Z,70.59
2023-05-19T01:15:51.171Z,70.37
2023-05-19T01:16:51.161Z,70.32
2023-05-19T01:17:51.263Z,70.39
2023-05-19T01:18:51.290Z,70.58
2023-05-19T01:19:51.263Z,70.29
2023-05-19T01:20:51.326Z,70.19
2023-05-19T01:21:51.338Z,70.18
2023-05-19T01:22:51.312Z,70.18
2023-05-19T01:23:51.377Z,70.42
2023-05-19T01:24:51.386Z,70.50
2023-05-19T01:25:51.411Z,71.09
2023-05-19T01:26:51.511Z,71.59
2023-05-19T01:27:51.506Z,71.56
2023-05-19T01:28:51.559Z,71.23
2023-05-19T01:29:51.564Z,71.22
2023-05-19T01:30:51.643Z,71.35
2023-05-19T01:31:51.675Z,71.19
2023-05-19T01:32:51.737Z,71.20
2023-05-19T01:33:51.708Z,71.15
2023-05-19T01:34:51.719Z,71.19
2023-05-19T01:35:51.772Z,71.43
2023-05-19T01:36:51.830Z,71.82
2023-05-19T01:37:51.782Z,71.99
2023-05-19T01:38:51.792Z,72.42
2023-05-19T01:39:51.813Z,72.38
2023-05-19T01:40:51.858Z,72.28
2023-05-19T01:41:51.907Z,72.30
2023-05-19T01:42:51.953Z,72.45
2023-05-19T01:43:51.984Z,72.83
2023-05-19T01:44:51.983Z,73.09
2023-05-19T01:45:52.040Z,72.97
2023-05-19T01:46:52.000Z,73.20
2023-05-19T01:47:52.069Z,73.13
2023-05-19T01:48:52.061Z,73.29
2023-05-19T01:49:52.062Z,73.29
2023-05-19T01:50:52.099Z,73.26
2023-05-19T01:51:52.138Z,73.16
2023-05-19T01:52:52.137Z,73.17
2023-05-19T01:53:52.202Z,72.82
2023-05-19T01:54:52.202Z,72.62
2023-05-19T01:55:52.251Z,72.55
2023-05-19T01:56:52.311Z,72.75
2023-05-19T01:57:52.296Z,72.69
2023-05-19T01:58:52.333Z,72.53
2023-05-19T01:59:52.358Z,72.33
2023-05-19T02:00:52.435Z,72.24
2023-05-19T02:01:52.470Z,72.25
2023-05-19T02:03:18.269Z,72.04
2023-05-19T02:04:18.362Z,71.92
2023-05-19T02:05:18.294Z,71.95
2023-05-19T02:06:18.355Z,71.94
2023-05-19T02:07:18.354Z,71.93
2023-05-19T02:08:18.350Z,72.69
2023-05-19T02:09:18.426Z,72.85
2023-05-19T02:10:18.421Z,72.70
2023-05-19T02:11:18.423Z,72.74
2023-05-19T02:12:18.480Z,73.28
2023-05-19T02:13:18.504Z,73.59
2023-05-19T02:14:18.495Z,73.56
2023-05-19T02:15:18.577Z,73.68
2023-05-19T02:16:18.692Z,73.75
2023-05-19T02:17:18.612Z,73.70
2023-05-19T02:18:18.632Z,73.69
2023-05-19T02:19:18.719Z,73.74
2023-05-19T02:20:18.688Z,73.69
2023-05-19T02:21:18.741Z,73.81
2023-05-19T02:22:18.749Z,73.47
2023-05-19T02:23:18.788Z,73.22
2023-05-19T02:24:18.771Z,73.33
2023-05-19T02:25:18.854Z,73.26
2023-05-19T02:26:18.844Z,73.97
2023-05-19T02:27:18.882Z,74.05
2023-05-19T02:28:18.947Z,74.06
2023-05-19T02:29:19.011Z,74.23
2023-05-19T02:30:19.007Z,74.07
2023-05-19T02:31:19.127Z,74.35
2023-05-19T02:32:19.131Z,74.55
2023-05-19T02:33:19.049Z,74.46
2023-05-19T02:34:19.103Z,74.59
2023-05-19T02:35:19.134Z,74.38
2023-05-19T02:36:19.159Z,74.07
2023-05-19T02:37:19.188Z,73.73
2023-05-19T02:38:19.155Z,73.36
2023-05-19T02:39:19.284Z,73.47
2023-05-19T02:40:19.243Z,73.24
2023-05-19T02:41:19.247Z,72.91
2023-05-19T02:42:19.245Z,72.47
2023-05-19T02:43:19.266Z,72.50
2023-05-19T02:44:19.264Z,72.63
2023-05-19T02:45:19.284Z,72.88
2023-05-19T02:46:19.358Z,72.78
2023-05-19T02:47:19.320Z,72.41
2023-05-19T02:48:19.365Z,72.40
2023-05-19T02:49:19.397Z,72.66
2023-05-19T02:50:19.395Z,72.38
2023-05-19T02:51:19.412Z,72.48
2023-05-19T02:52:19.418Z,72.48
2023-05-19T02:53:19.431Z,72.61
2023-05-19T02:54:19.437Z,72.74
2023-05-19T02:55:19.502Z,72.89
2023-05-19T02:56:19.547Z,72.74
2023-05-19T02:57:19.547Z,72.48
2023-05-19T02:58:19.562Z,72.44
2023-05-19T02:59:19.621Z,72.39
2023-05-19T03:00:19.627Z,72.27
2023-05-19T03:01:19.702Z,72.10
2023-05-19T03:02:19.740Z,72.08
2023-05-19T03:03:19.937Z,71.77
2023-05-19T03:04:19.864Z,71.75
2023-05-19T03:05:19.870Z,72.32
2023-05-19T03:06:19.929Z,72.28
2023-05-19T03:07:19.989Z,72.04
2023-05-19T03:08:20.052Z,72.04
2023-05-19T03:09:20.055Z,72.57
2023-05-19T03:10:20.099Z,72.37
2023-05-19T03:11:20.155Z,72.47
2023-05-19T03:12:20.222Z,72.28
2023-05-19T03:13:20.233Z,72.39
2023-05-19T03:14:20.293Z,72.70
2023-05-19T03:15:20.297Z,72.72
2023-05-19T03:16:20.374Z,72.56
2023-05-19T03:17:20.448Z,72.25
2023-05-19T03:18:20.483Z,72.44
2023-05-19T03:19:20.516Z,72.39
2023-05-19T03:20:20.509Z,72.08
2023-05-19T03:21:20.544Z,71.94
2023-05-19T03:22:20.566Z,72.24
2023-05-19T03:23:43.075Z,72.45
2023-05-19T03:24:43.112Z,72.61
2023-05-19T03:25:43.097Z,72.39
2023-05-19T03:26:43.115Z,72.45
2023-05-19T03:27:43.052Z,72.37
2023-05-19T03:28:43.459Z,72.52
2023-05-19T03:29:43.029Z,72.55
2023-05-19T03:30:43.072Z,72.36
2023-05-19T03:31:43.043Z,72.30
2023-05-19T03:32:43.108Z,71.90
2023-05-19T03:33:43.083Z,71.61
2023-05-19T03:34:43.020Z,71.49
2023-05-19T03:35:43.005Z,71.49
2023-05-19T03:36:43.033Z,71.63
2023-05-19T03:37:42.984Z,71.70
2023-05-19T03:38:43.022Z,71.45
2023-05-19T03:39:42.944Z,71.84
2023-05-19T03:40:42.982Z,71.93
2023-05-19T03:41:42.966Z,71.88
2023-05-19T03:42:43.010Z,71.68
2023-05-19T03:43:42.957Z,71.76
2023-05-19T03:44:42.921Z,72.18
2023-05-19T03:45:42.965Z,72.40
2023-05-19T03:46:42.941Z,72.35
2023-05-19T03:47:42.926Z,72.96
2023-05-19T03:48:42.892Z,72.68
2023-05-19T03:49:42.975Z,73.64
2023-05-19T03:50:42.905Z,74.30
2023-05-19T03:51:42.925Z,74.36
2023-05-19T03:52:42.869Z,74.25
2023-05-19T03:53:42.876Z,74.27
2023-05-19T03:54:42.890Z,73.92
2023-05-19T03:55:42.851Z,73.78
2023-05-19T03:56:42.856Z,73.82
2023-05-19T03:57:42.845Z,73.91
2023-05-19T03:58:42.821Z,73.74
2023-05-19T03:59:42.831Z,73.70
2023-05-19T04:00:42.857Z,73.63
2023-05-19T04:01:42.935Z,73.58
2023-05-19T04:02:42.920Z,73.27
2023-05-19T04:03:42.830Z,73.35
2023-05-19T04:04:42.833Z,73.55
2023-05-19T04:05:42.824Z,74.18
2023-05-19T04:06:42.792Z,74.51
2023-05-19T04:07:44.852Z,75.01
2023-05-19T04:08:42.780Z,74.78
2023-05-19T04:09:42.764Z,74.66
2023-05-19T04:10:42.760Z,74.67
2023-05-19T04:11:42.826Z,74.53
2023-05-19T04:12:42.742Z,74.13
2023-05-19T04:13:43.415Z,73.95
2023-05-19T04:14:42.718Z,73.83
2023-05-19T04:15:42.757Z,73.51
2023-05-19T04:16:42.735Z,73.62
2023-05-19T04:17:42.705Z,73.50
2023-05-19T04:18:42.688Z,73.37
2023-05-19T04:19:42.712Z,73.08
2023-05-19T04:20:42.724Z,73.15
2023-05-19T04:21:42.724Z,72.92
2023-05-19T04:22:42.780Z,72.64
2023-05-19T04:23:42.771Z,72.48
2023-05-19T04:24:42.792Z,72.36
2023-05-19T04:25:42.802Z,72.13
2023-05-19T04:26:42.859Z,71.88
2023-05-19T04:27:42.902Z,71.66
2023-05-19T04:28:42.931Z,71.47
2023-05-19T04:29:42.926Z,71.43
2023-05-19T04:30:42.966Z,71.47
2023-05-19T04:31:43.025Z,71.26
2023-05-19T04:32:42.946Z,71.43
2023-05-19T04:33:42.957Z,71.51
2023-05-19T04:34:43.010Z,71.47
2023-05-19T04:35:43.013Z,71.76
2023-05-19T04:36:43.073Z,72.08
2023-05-19T04:37:43.078Z,72.23
2023-05-19T04:38:43.093Z,73.05
2023-05-19T04:39:43.161Z,72.91
2023-05-19T04:40:43.105Z,72.77
2023-05-19T04:41:43.128Z,72.93
2023-05-19T04:42:43.165Z,72.99
2023-05-19T04:43:43.168Z,73.36
2023-05-19T04:44:43.193Z,73.64
2023-05-19T04:45:43.229Z,73.34
2023-05-19T04:46:43.298Z,73.71
2023-05-19T04:47:43.266Z,73.23
2023-05-19T04:48:43.266Z,73.43
2023-05-19T04:49:43.288Z,73.37
2023-05-19T04:50:43.273Z,73.91
2023-05-19T04:51:43.355Z,74.23
2023-05-19T04:52:43.399Z,74.59
2023-05-19T04:53:43.425Z,74.72
2023-05-19T04:54:43.446Z,74.53
2023-05-19T04:55:43.577Z,74.04
2023-05-19T04:56:43.543Z,74.39
2023-05-19T04:57:43.512Z,74.08
2023-05-19T04:58:43.588Z,74.03
2023-05-19T04:59:43.641Z,73.54
2023-05-19T05:00:43.646Z,73.49
2023-05-19T05:01:43.731Z,72.90
2023-05-19T05:02:43.796Z,72.85
2023-05-19T05:03:43.810Z,72.81
2023-05-19T05:04:43.713Z,72.64
2023-05-19T05:05:43.745Z,72.57
2023-05-19T05:06:43.763Z,72.86
2023-05-19T05:07:43.765Z,72.88
2023-05-19T05:08:44.779Z,72.84
2023-05-19T05:09:43.823Z,73.34
2023-05-19T05:10:43.861Z,74.23
2023-05-19T05:11:43.917Z,74.07
2023-05-19T05:12:43.923Z,73.47
2023-05-19T05:13:43.940Z,73.54
2023-05-19T05:14:43.951Z,72.98
2023-05-19T05:15:43.986Z,72.71
2023-05-19T05:16:44.217Z,72.44
2023-05-19T05:17:44.088Z,72.21
2023-05-19T05:18:45.025Z,71.87
2023-05-19T05:19:44.091Z,71.76
2023-05-19T05:20:44.101Z,71.49
2023-05-19T05:21:44.099Z,71.21
2023-05-19T05:22:44.082Z,71.15
2023-05-19T05:23:44.156Z,71.29
2023-05-19T05:24:44.130Z,71.07
2023-05-19T05:25:44.232Z,70.91
2023-05-19T05:26:44.215Z,70.86
2023-05-19T05:27:44.255Z,71.20
2023-05-19T05:28:44.237Z,71.37
2023-05-19T05:29:44.281Z,71.30
2023-05-19T05:30:44.300Z,71.20
2023-05-19T05:31:44.376Z,71.22
2023-05-19T05:32:44.485Z,71.07
2023-05-19T05:33:44.416Z,70.67
2023-05-19T05:34:44.381Z,70.45
2023-05-19T05:35:44.461Z,70.28
2023-05-19T05:36:44.510Z,69.87
2023-05-19T05:37:44.530Z,70.30
2023-05-19T05:38:44.550Z,71.28
2023-05-19T05:39:44.541Z,71.13
2023-05-19T05:40:44.595Z,70.70
2023-05-19T05:41:44.651Z,70.71
2023-05-19T05:42:44.676Z,70.72
2023-05-19T05:43:44.746Z,70.56
2023-05-19T05:44:44.754Z,69.86
2023-05-19T05:45:44.811Z,70.92
2023-05-19T05:46:44.805Z,70.64
2023-05-19T05:47:44.862Z,69.88
2023-05-19T05:48:44.880Z,69.31
2023-05-19T05:49:44.884Z,69.06
2023-05-19T05:50:44.904Z,69.66
2023-05-19T05:51:57.918Z,69.49
2023-05-19T05:52:45.927Z,68.91
2023-05-19T05:53:44.924Z,69.26
2023-05-19T05:54:44.939Z,70.43
2023-05-19T05:55:44.900Z,72.40
2023-05-19T05:56:44.921Z,72.12
2023-05-19T05:57:44.904Z,71.74
2023-05-19T05:58:44.874Z,71.76
2023-05-19T05:59:44.882Z,71.81
2023-05-19T06:00:45.287Z,71.42
2023-05-19T06:01:44.909Z,71.22
2023-05-19T06:02:44.972Z,71.02
2023-05-19T06:03:44.941Z,70.03
2023-05-19T06:04:44.837Z,69.72
2023-05-19T06:05:44.894Z,69.58
2023-05-19T06:06:44.846Z,69.06
2023-05-19T06:07:44.834Z,69.73
2023-05-19T06:08:44.888Z,69.65
2023-05-19T06:09:44.932Z,69.28
2023-05-19T06:10:47.200Z,68.80
2023-05-19T06:11:45.165Z,67.63
2023-05-19T06:12:45.143Z,67.62
2023-05-19T06:13:45.363Z,67.54
2023-05-19T06:14:45.206Z,67.23
2023-05-19T06:15:45.365Z,66.26
2023-05-19T06:16:45.329Z,65.23
2023-05-19T06:17:45.374Z,64.04
2023-05-19T06:18:45.405Z,62.67
2023-05-19T06:19:45.420Z,62.61
2023-05-19T06:20:45.431Z,62.19
2023-05-19T06:21:45.450Z,62.15
2023-05-19T06:22:45.457Z,62.10
2023-05-19T06:23:45.525Z,61.72
2023-05-19T06:24:45.611Z,62.41
2023-05-19T06:25:45.593Z,61.81
2023-05-19T06:26:45.624Z,61.15
2023-05-19T06:27:45.666Z,60.60
2023-05-19T06:28:45.663Z,59.77
2023-05-19T06:29:45.733Z,59.60
2023-05-19T06:30:45.743Z,61.02
2023-05-19T06:31:45.849Z,61.59
2023-05-19T06:32:45.868Z,61.83
2023-05-19T06:33:45.864Z,63.06
2023-05-19T06:34:45.846Z,63.17
2023-05-19T06:35:45.846Z,62.59
2023-05-19T06:36:45.909Z,63.35
2023-05-19T06:37:45.889Z,63.45
2023-05-19T06:38:45.951Z,63.40
2023-05-19T06:39:45.985Z,63.05
2023-05-19T06:40:45.968Z,62.68
2023-05-19T06:41:45.987Z,61.82
2023-05-19T06:42:46.013Z,61.39
2023-05-19T06:43:46.048Z,60.68
2023-05-19T06:44:46.112Z,59.70
2023-05-19T06:45:46.135Z,58.98
2023-05-19T06:46:46.292Z,58.87
2023-05-19T06:47:46.416Z,57.75
2023-05-19T06:48:46.296Z,57.91
2023-05-19T06:49:46.287Z,57.88
2023-05-19T06:50:46.303Z,57.17
2023-05-19T06:51:46.370Z,55.95
2023-05-19T06:52:46.408Z,54.49
2023-05-19T06:53:46.518Z,53.04
2023-05-19T06:54:46.438Z,52.72
2023-05-19T06:55:58.130Z,51.81
2023-05-19T06:56:47.508Z,53.32
2023-05-19T06:57:46.537Z,53.11
2023-05-19T06:58:46.524Z,52.75
2023-05-19T06:59:46.476Z,53.61
2023-05-19T07:00:46.457Z,53.92
2023-05-19T07:01:46.481Z,53.68
2023-05-19T07:02:46.577Z,52.39
2023-05-19T07:03:46.534Z,51.66
2023-05-19T07:04:46.448Z,51.45
2023-05-19T07:05:46.444Z,51.41
2023-05-19T07:06:46.465Z,51.84
2023-05-19T07:07:46.434Z,53.70
2023-05-19T07:08:46.400Z,54.03
2023-05-19T07:10:16.527Z,54.34
2023-05-19T07:11:16.489Z,53.81
2023-05-19T07:12:16.560Z,54.58
2023-05-19T07:13:16.538Z,55.38
2023-05-19T07:14:16.520Z,56.34
2023-05-19T07:15:16.532Z,57.95
2023-05-19T07:16:16.580Z,58.60
2023-05-19T07:17:16.510Z,58.34
2023-05-19T07:18:16.536Z,59.34
2023-05-19T07:19:16.572Z,59.75
2023-05-19T07:20:16.505Z,60.46
2023-05-19T07:21:16.486Z,59.47
2023-05-19T07:22:16.479Z,58.78
2023-05-19T07:23:17.450Z,57.86
2023-05-19T07:24:16.473Z,57.39
2023-05-19T07:25:16.475Z,56.92
2023-05-19T07:26:16.469Z,56.71
2023-05-19T07:27:16.494Z,58.33
2023-05-19T07:28:16.462Z,58.55
2023-05-19T07:29:16.457Z,57.96
2023-05-19T07:30:16.405Z,59.22
2023-05-19T07:31:16.440Z,58.48
2023-05-19T07:32:16.547Z,57.26
2023-05-19T07:33:16.467Z,56.54
2023-05-19T07:34:16.383Z,55.98
2023-05-19T07:35:16.422Z,55.57
2023-05-19T07:36:16.410Z,54.14
2023-05-19T07:37:16.406Z,53.97
2023-05-19T07:38:16.345Z,53.30
2023-05-19T07:39:16.391Z,53.25
2023-05-19T07:40:16.337Z,53.63
2023-05-19T07:41:16.329Z,55.15
2023-05-19T07:42:16.340Z,55.19
2023-05-19T07:43:16.333Z,56.35
2023-05-19T07:44:16.298Z,56.26
2023-05-19T07:45:16.315Z,56.25
2023-05-19T07:46:16.393Z,55.83
2023-05-19T07:47:16.324Z,54.90
2023-05-19T07:48:16.304Z,55.12
2023-05-19T07:49:16.286Z,55.18
2023-05-19T07:50:16.335Z,55.03
2023-05-19T07:51:16.309Z,54.41
2023-05-19T07:52:16.268Z,54.70
2023-05-19T07:53:16.273Z,54.46
2023-05-19T07:54:16.211Z,54.17
2023-05-19T07:55:16.244Z,53.86
2023-05-19T07:56:16.218Z,53.50
2023-05-19T07:57:16.225Z,53.51
2023-05-19T07:58:16.197Z,54.34
2023-05-19T07:59:16.208Z,54.38
2023-05-19T08:00:16.229Z,53.87
2023-05-19T08:01:16.211Z,53.16
2023-05-19T08:02:16.257Z,53.13
2023-05-19T08:03:16.447Z,53.79
2023-05-19T08:04:16.329Z,53.63
2023-05-19T08:05:16.228Z,53.48
2023-05-19T08:06:16.265Z,53.45
2023-05-19T08:07:16.326Z,53.14
2023-05-19T08:08:16.318Z,52.98
2023-05-19T08:09:16.387Z,51.94
2023-05-19T08:10:16.433Z,51.58
2023-05-19T08:11:16.436Z,51.34
2023-05-19T08:12:16.493Z,51.21
2023-05-19T08:13:16.437Z,51.64
2023-05-19T08:14:16.472Z,51.84
2023-05-19T08:15:16.558Z,51.59
2023-05-19T08:16:16.604Z,51.62
2023-05-19T08:17:16.613Z,50.93
2023-05-19T08:18:16.564Z,50.44
2023-05-19T08:19:16.727Z,50.23
2023-05-19T08:20:16.697Z,49.94
2023-05-19T08:21:16.772Z,49.88
2023-05-19T08:22:16.769Z,49.80
2023-05-19T08:23:16.775Z,49.93
2023-05-19T08:24:16.839Z,52.14
2023-05-19T08:25:16.837Z,52.25
2023-05-19T08:26:16.897Z,51.65
2023-05-19T08:27:16.910Z,50.60
2023-05-19T08:28:16.924Z,50.18
2023-05-19T08:29:16.922Z,51.05
2023-05-19T08:30:16.922Z,51.48
2023-05-19T08:31:17.002Z,50.08
2023-05-19T08:32:17.025Z,48.81
2023-05-19T08:33:17.054Z,49.61
2023-05-19T08:34:17.093Z,48.86
2023-05-19T08:35:17.177Z,48.20
2023-05-19T08:36:17.178Z,47.28
2023-05-19T08:37:17.183Z,46.38
2023-05-19T08:38:17.248Z,45.25
2023-05-19T08:39:17.254Z,44.61
2023-05-19T08:40:17.267Z,43.84
2023-05-19T08:41:17.296Z,44.06
2023-05-19T08:42:17.350Z,44.79
2023-05-19T08:43:17.416Z,45.87
2023-05-19T08:44:19.002Z,45.20
2023-05-19T08:45:17.450Z,44.58
2023-05-19T08:46:17.510Z,44.09
2023-05-19T08:47:20.336Z,44.05
2023-05-19T08:48:17.544Z,43.62
2023-05-19T08:49:17.513Z,42.81
2023-05-19T08:50:17.524Z,41.42
2023-05-19T08:51:17.493Z,41.29
2023-05-19T08:52:17.491Z,41.22
2023-05-19T08:53:31.962Z,41.17
2023-05-19T08:54:18.456Z,40.70
2023-05-19T08:55:17.482Z,40.30
2023-05-19T08:56:17.435Z,39.84
2023-05-19T08:57:17.452Z,39.61
2023-05-19T08:58:17.453Z,40.68
2023-05-19T08:59:17.444Z,40.91
2023-05-19T09:00:17.437Z,40.92
2023-05-19T09:01:17.479Z,40.30
2023-05-19T09:02:17.447Z,39.79
2023-05-19T09:03:23.271Z,39.95
2023-05-19T09:04:18.464Z,39.86
2023-05-19T09:05:17.371Z,39.43
2023-05-19T09:06:17.419Z,39.20
2023-05-19T09:07:17.389Z,39.21
2023-05-19T09:08:17.416Z,38.90
2023-05-19T09:09:17.365Z,39.12
2023-05-19T09:10:17.327Z,39.24
2023-05-19T09:11:17.349Z,39.64
2023-05-19T09:12:17.347Z,39.47
2023-05-19T09:13:17.354Z,40.13
2023-05-19T09:14:17.363Z,40.62
2023-05-19T09:15:17.342Z,40.20
2023-05-19T09:16:17.294Z,39.82
2023-05-19T09:17:17.344Z,38.79
2023-05-19T09:18:17.309Z,38.31
2023-05-19T09:19:17.375Z,38.25
2023-05-19T09:20:17.366Z,38.07
2023-05-19T09:21:17.419Z,38.84
2023-05-19T09:22:17.493Z,38.64
2023-05-19T09:23:17.479Z,38.12
2023-05-19T09:24:17.558Z,37.05
2023-05-19T09:25:17.537Z,37.11
2023-05-19T09:26:17.569Z,37.55
2023-05-19T09:27:17.612Z,37.56
2023-05-19T09:28:17.652Z,40.95
2023-05-19T09:29:17.639Z,41.94
2023-05-19T09:30:17.708Z,42.37
2023-05-19T09:31:18.662Z,43.45
2023-05-19T09:32:17.748Z,44.84
2023-05-19T09:33:18.662Z,45.81
2023-05-19T09:34:17.767Z,45.27
2023-05-19T09:35:17.799Z,43.46
2023-05-19T09:36:17.816Z,42.57
2023-05-19T09:37:17.930Z,41.17
2023-05-19T09:38:17.902Z,40.30
2023-05-19T09:39:17.925Z,39.93
2023-05-19T09:40:18.027Z,39.67
2023-05-19T09:41:18.015Z,38.67
2023-05-19T09:42:18.028Z,37.74
2023-05-19T09:43:18.073Z,36.84
2023-05-19T09:44:18.067Z,36.66
2023-05-19T09:45:18.112Z,36.20
2023-05-19T09:46:18.209Z,37.53
2023-05-19T09:47:18.228Z,39.63
2023-05-19T09:48:18.284Z,41.36
2023-05-19T09:49:18.279Z,44.23
2023-05-19T09:50:18.411Z,42.55
2023-05-19T09:51:19.252Z,43.73
2023-05-19T09:52:18.351Z,43.22
2023-05-19T09:53:18.365Z,42.20
2023-05-19T09:54:18.398Z,45.84
2023-05-19T09:55:18.376Z,45.03
2023-05-19T09:56:18.416Z,42.98
2023-05-19T09:57:18.441Z,42.12
2023-05-19T09:58:18.498Z,41.00
2023-05-19T09:59:18.497Z,40.05
2023-05-19T10:00:18.634Z,39.95
2023-05-19T10:01:18.617Z,39.59
2023-05-19T10:02:18.612Z,39.75
2023-05-19T10:03:18.597Z,40.34
2023-05-19T10:04:18.615Z,40.94
2023-05-19T10:05:19.766Z,40.37
2023-05-19T10:06:18.696Z,44.39
2023-05-19T10:07:18.749Z,43.58
2023-05-19T10:08:18.751Z,42.12
2023-05-19T10:09:18.823Z,41.44
2023-05-19T10:10:18.823Z,41.25
2023-05-19T10:11:18.867Z,40.97
2023-05-19T10:12:18.881Z,40.63
2023-05-19T10:13:18.951Z,39.43
2023-05-19T10:14:18.961Z,39.88
2023-05-19T10:15:20.552Z,39.62
2023-05-19T10:16:19.038Z,40.81
2023-05-19T10:17:19.023Z,41.00
2023-05-19T10:18:18.987Z,39.88
2023-05-19T10:19:19.020Z,40.22
2023-05-19T10:20:19.066Z,39.73
2023-05-19T10:21:18.954Z,39.40
2023-05-19T10:22:19.022Z,39.07
2023-05-19T10:23:18.944Z,39.79
2023-05-19T10:24:18.967Z,40.34
2023-05-19T10:25:18.929Z,39.48
2023-05-19T10:26:18.960Z,38.40
2023-05-19T10:27:18.956Z,38.03
2023-05-19T10:28:18.950Z,38.33
2023-05-19T10:29:18.891Z,38.34
2023-05-19T10:30:18.908Z,38.02
2023-05-19T10:31:18.995Z,40.46
2023-05-19T10:32:18.932Z,42.79
2023-05-19T10:33:18.912Z,44.14
2023-05-19T10:34:18.854Z,43.88
2023-05-19T10:35:18.868Z,45.59
2023-05-19T10:36:18.891Z,45.60
2023-05-19T10:37:18.864Z,43.95
2023-05-19T10:38:18.866Z,43.10
2023-05-19T10:39:18.891Z,44.41
2023-05-19T10:40:18.822Z,44.85
2023-05-19T10:41:18.840Z,45.77
2023-05-19T10:42:18.850Z,45.26
2023-05-19T10:43:18.782Z,44.16
2023-05-19T10:44:18.807Z,45.01
2023-05-19T10:45:18.796Z,44.43
2023-05-19T10:46:18.827Z,43.80
2023-05-19T10:47:18.845Z,45.65
2023-05-19T10:48:19.216Z,45.57
2023-05-19T10:49:18.772Z,46.00
2023-05-19T10:50:18.738Z,46.22
2023-05-19T10:51:18.759Z,45.57
2023-05-19T10:52:18.770Z,44.88
2023-05-19T10:53:18.745Z,43.23
2023-05-19T10:54:18.761Z,42.44
2023-05-19T10:55:18.732Z,42.54
2023-05-19T10:56:18.742Z,41.95
2023-05-19T10:57:18.749Z,40.79
2023-05-19T10:58:18.694Z,40.57
2023-05-19T10:59:18.696Z,40.77
2023-05-19T11:00:18.655Z,42.32
2023-05-19T11:01:18.753Z,45.01
2023-05-19T11:02:18.690Z,44.85
2023-05-19T11:03:18.747Z,44.27
2023-05-19T11:04:18.710Z,43.66
2023-05-19T11:05:18.664Z,42.60
2023-05-19T11:06:18.669Z,42.74
2023-05-19T11:07:18.667Z,43.88
2023-05-19T11:08:18.642Z,47.82
2023-05-19T11:09:19.514Z,48.41
2023-05-19T11:10:18.650Z,48.63
2023-05-19T11:11:18.585Z,47.04
2023-05-19T11:12:18.690Z,45.29
2023-05-19T11:13:18.665Z,44.51
2023-05-19T11:14:18.751Z,43.21
2023-05-19T11:15:18.671Z,43.29
2023-05-19T11:16:18.836Z,45.14
2023-05-19T11:17:18.785Z,45.70
2023-05-19T11:18:18.796Z,46.45
2023-05-19T11:19:18.857Z,45.70
2023-05-19T11:20:18.852Z,44.09
2023-05-19T11:21:18.910Z,43.15
2023-05-19T11:22:18.844Z,42.14
2023-05-19T11:23:18.947Z,41.74
2023-05-19T11:24:18.911Z,42.49
2023-05-19T11:25:18.908Z,41.62
2023-05-19T11:26:18.980Z,42.05
2023-05-19T11:27:19.028Z,42.19
2023-05-19T11:28:19.105Z,41.35
2023-05-19T11:29:19.108Z,42.31
2023-05-19T11:30:19.122Z,42.04
2023-05-19T11:31:19.162Z,41.08
2023-05-19T11:32:19.234Z,41.30
2023-05-19T11:33:19.268Z,41.98
2023-05-19T11:34:19.209Z,41.34
2023-05-19T11:35:19.227Z,40.75
2023-05-19T11:36:19.250Z,40.92
2023-05-19T11:37:19.324Z,40.07
2023-05-19T11:38:19.333Z,38.94
2023-05-19T11:39:19.337Z,40.25
2023-05-19T11:40:19.336Z,42.73
2023-05-19T11:41:20.766Z,42.23
2023-05-19T11:42:19.455Z,43.05
2023-05-19T11:43:19.521Z,42.41
2023-05-19T11:44:19.529Z,41.95
2023-05-19T11:45:19.506Z,40.68
2023-05-19T11:46:19.592Z,41.73
2023-05-19T11:47:19.630Z,42.55
2023-05-19T11:48:19.733Z,41.78
2023-05-19T11:49:19.677Z,41.32
2023-05-19T11:50:19.850Z,40.37
2023-05-19T11:51:19.694Z,40.43
2023-05-19T11:52:19.737Z,41.83
2023-05-19T11:53:19.941Z,41.60
2023-05-19T11:54:19.696Z,40.69
2023-05-19T11:55:19.740Z,41.02
2023-05-19T11:56:19.670Z,40.61
2023-05-19T11:57:19.664Z,40.48
2023-05-19T11:58:19.663Z,39.92
2023-05-19T11:59:19.665Z,39.48
2023-05-19T12:00:19.647Z,39.71
2023-05-19T12:01:19.625Z,39.07
2023-05-19T12:02:19.703Z,39.55
2023-05-19T12:03:19.889Z,40.53
2023-05-19T12:04:19.771Z,40.55
2023-05-19T12:05:19.840Z,43.37
2023-05-19T12:06:19.848Z,43.95
2023-05-19T12:07:19.851Z,44.88
2023-05-19T12:08:19.917Z,44.10
2023-05-19T12:09:19.935Z,43.84
2023-05-19T12:10:19.961Z,43.50
2023-05-19T12:11:20.112Z,43.72
2023-05-19T12:12:20.012Z,43.26
2023-05-19T12:13:19.984Z,42.46
2023-05-19T12:14:20.069Z,42.29
2023-05-19T12:15:20.086Z,42.41
2023-05-19T12:16:20.166Z,41.83
2023-05-19T12:17:20.122Z,41.81
2023-05-19T12:18:20.187Z,42.59
2023-05-19T12:19:20.289Z,43.35
2023-05-19T12:20:20.231Z,43.44
2023-05-19T12:21:20.230Z,43.81
2023-05-19T12:22:20.270Z,43.90
2023-05-19T12:23:20.275Z,43.57
2023-05-19T12:24:20.351Z,43.12
2023-05-19T12:25:20.302Z,42.78
2023-05-19T12:26:20.330Z,42.47
2023-05-19T12:27:20.391Z,42.92
2023-05-19T12:28:20.365Z,42.81
2023-05-19T12:29:20.394Z,42.59
2023-05-19T12:30:20.400Z,41.83
2023-05-19T12:31:20.463Z,41.91
2023-05-19T12:32:20.449Z,41.64
2023-05-19T12:33:20.501Z,42.24
2023-05-19T12:34:20.545Z,42.05
2023-05-19T12:35:20.602Z,42.04
2023-05-19T12:36:20.617Z,41.05
2023-05-19T12:37:20.656Z,40.47
2023-05-19T12:38:20.653Z,40.45
2023-05-19T12:39:21.478Z,41.43
2023-05-19T12:40:20.690Z,41.81
2023-05-19T12:41:20.717Z,42.14
2023-05-19T12:42:20.787Z,42.11
2023-05-19T12:43:20.802Z,42.29
2023-05-19T12:44:20.827Z,43.24
2023-05-19T12:45:20.830Z,43.48
2023-05-19T12:46:20.879Z,43.34
2023-05-19T12:47:20.915Z,43.40
2023-05-19T12:48:20.907Z,42.41
2023-05-19T12:49:20.890Z,42.23
2023-05-19T12:50:20.928Z,42.66
2023-05-19T12:51:20.941Z,41.73
2023-05-19T12:52:21.022Z,42.02
2023-05-19T12:53:21.063Z,41.98
2023-05-19T12:54:21.072Z,42.13